LPPDLPLA

Guest
Details From LPPD - PONTA DELGADA
To LPLA - LAJES
Flight Number -
Tags generated
Created
Modified
Stats Distance 90 nm / 167 km
Max Altitude 9,600 ft / 2,926 m
Waypoints 3
Social Downloads 2
Likes 0
Share

Download

Looking for another format? Having issues loading an existing format? Contact us
Advertisement - Login to hide

Notes

Basic altitude profile: - Ascent Rate: 1500ft/min - Ascent Speed: 250kts - Cruise Altitude: 12000ft - Cruise Speed: 420kts - Descent Rate: 1500ft/min - Descent Speed: 250kts Options: - Use NATs: yes - Use PACOTS: yes - Use low airways: yes - Use high airways: yes

Route

LPPD MIPRU LPLA

ID Type Via Altitude (ft/m) Position (lat/lon) Dist (leg/tot) Name
O LPPD APT - 0 / 0 37.74208 / -25.69774 - / 0 nm PONTA DELGADA
MIPRU FIX - 9,600 / 2,926 38.27361 / -26.36472 44 / 44 nm
O LPLA APT - 0 / 0 38.76441 / -27.09348 45 / 90 nm LAJES

Altitude Profile

Advertisement - Login to hide

LPPD

Details ICAO LPPD (PDL)
Name PONTA DELGADA
Region Portugal
Timezone Atlantic/Azores (UTC-1.0)
Stats Elevation 257 ft / 78 m (AMSL)
Location 37.742000° -25.697500°
Runways 1
Magnetic Variation 7.942° W

METAR

LPPD 041730Z 35012G24KT 320V030 9999 VCSH FEW008 SCT016 15/12 Q1029

Decode

TAF

TAF LPPD 041100Z 0412/0512 35012KT 9999 FEW020 BKN030 TEMPO 0412/0512 SCT025 PROB30 TEMPO 0417/0424 8000 SHRA BKN012 BECMG 0509/0511 02012KT

Decode

Departure Runways

ID Width Length Bearing (true/mag) Surface Threshold Overrun Markings Lighting
12 148 ft / 45 m 8,257 ft / 2,517 m 111.64° / 119.58° ASPHALT 92 ft / 28 m 361 ft / 110 m PREC-APP CENTERLINE EDGE THRESHOLD ALSF-II
30 148 ft / 45 m 8,257 ft / 2,517 m 291.65° / 299.60° ASPHALT 784 ft / 239 m 0 ft / 0 m PREC-APP CENTERLINE EDGE THRESHOLD ALSF-II

LPLA

Details ICAO LPLA (TER)
Name LAJES
Region Portugal
Timezone Atlantic/Azores (UTC-1.0)
Stats Elevation 180 ft / 55 m (AMSL)
Location 38.764400° -27.093500°
Runways 1
Magnetic Variation 8.503° W

METAR

LPLA 041700Z /////KT 9999 FEW016 BKN020 15/12 Q1030

Decode

TAF

TAF LPLA 041105Z 0412/0512 36012KT 9999 BKN030 TEMPO 0412/0420 34015G25KT BKN022 PROB40 TEMPO 0420/0503 9000 -RA BKN018

Decode

Destination Runways

ID Width Length Bearing (true/mag) Surface Threshold Overrun Markings Lighting
15 197 ft / 60 m 10,870 ft / 3,313 m 140.81° / 149.32° ASPHALT 0 ft / 0 m 965 ft / 294 m PREC-APP EDGE THRESHOLD SALS REIL-UNI
33 197 ft / 60 m 10,870 ft / 3,313 m 320.83° / 329.33° ASPHALT 0 ft / 0 m 997 ft / 304 m PREC-APP EDGE THRESHOLD ALSF-I REIL-UNI

Approach Navaids

Runway Type Ident Frequency Range Bearing (true/mag) Slope Elevation
15 LOC-ILS DK 109.90 MHz 18 nm / 33 km 140.83° / 149.33 ° - 180 ft / 55 m (AMSL)
15 GS DK 109.90 MHz 10 nm / 19 km 140.83° / 149.33 ° 3.00° 180 ft / 55 m (AMSL)
33 LOC-ILS OZ 111.50 MHz 18 nm / 33 km 320.83° / 329.33 ° - 180 ft / 55 m (AMSL)
33 GS OZ 111.50 MHz 10 nm / 19 km 320.83° / 329.33 ° 3.20° 180 ft / 55 m (AMSL)

Popular Alternatives